createdAt,value
2017-12-23T00:01:59.262Z,5.61
2017-12-23T00:04:26.789Z,5.61
2017-12-23T00:06:54.313Z,5.61
2017-12-23T00:09:21.838Z,5.56
2017-12-23T00:11:49.358Z,5.64
2017-12-23T00:14:16.879Z,5.64
2017-12-23T00:16:45.412Z,5.66
2017-12-23T00:19:12.925Z,5.64
2017-12-23T00:21:40.447Z,5.56
2017-12-23T00:24:07.967Z,5.60
2017-12-23T00:26:35.493Z,5.58
2017-12-23T00:29:03.005Z,5.62
2017-12-23T00:31:30.523Z,5.62
2017-12-23T00:33:58.054Z,5.58
2017-12-23T00:36:25.595Z,5.61
2017-12-23T00:38:53.147Z,5.60
2017-12-23T00:41:20.681Z,5.63
2017-12-23T00:43:48.195Z,5.58
2017-12-23T00:46:15.725Z,5.58
2017-12-23T00:48:43.245Z,5.53
2017-12-23T00:51:10.757Z,5.56
2017-12-23T00:53:38.283Z,5.57
2017-12-23T00:56:05.816Z,5.54
2017-12-23T00:58:33.326Z,5.51
2017-12-23T01:01:00.857Z,5.60
2017-12-23T01:03:28.391Z,5.59
2017-12-23T01:05:55.906Z,5.52
2017-12-23T01:08:23.438Z,5.56
2017-12-23T01:10:50.959Z,5.63
2017-12-23T01:13:18.486Z,5.62
2017-12-23T01:15:46.024Z,5.57
2017-12-23T01:18:13.545Z,5.57
2017-12-23T01:20:41.071Z,5.58
2017-12-23T01:23:08.590Z,5.56
2017-12-23T01:25:36.100Z,5.60
2017-12-23T01:28:03.666Z,5.57
2017-12-23T01:30:31.167Z,5.61
2017-12-23T01:32:58.681Z,5.64
2017-12-23T01:35:26.199Z,5.58
2017-12-23T01:37:53.720Z,5.57
2017-12-23T01:40:21.246Z,5.57
2017-12-23T01:42:48.776Z,5.62
2017-12-23T01:45:16.296Z,5.58
2017-12-23T01:47:44.625Z,5.59
2017-12-23T01:50:12.145Z,5.53
2017-12-23T01:52:39.678Z,5.59
2017-12-23T01:55:07.197Z,5.52
2017-12-23T01:57:34.718Z,5.59
2017-12-23T02:00:02.246Z,5.57
2017-12-23T02:02:29.771Z,5.61
2017-12-23T02:04:57.297Z,5.64
2017-12-23T02:07:24.821Z,5.66
2017-12-23T02:09:52.338Z,5.58
2017-12-23T02:12:19.857Z,5.64
2017-12-23T02:14:47.373Z,5.63
2017-12-23T02:17:14.895Z,5.60
2017-12-23T02:19:42.413Z,5.67
2017-12-23T02:22:09.932Z,5.65
2017-12-23T02:24:37.459Z,5.60
2017-12-23T02:27:04.984Z,5.62
2017-12-23T02:29:32.520Z,5.60
2017-12-23T02:32:00.045Z,5.62
2017-12-23T02:34:27.584Z,5.57
2017-12-23T02:36:55.106Z,5.59
2017-12-23T02:39:22.638Z,5.61
2017-12-23T02:41:50.165Z,5.58
2017-12-23T02:44:17.714Z,5.55
2017-12-23T02:46:45.242Z,5.56
2017-12-23T02:49:12.769Z,5.55
2017-12-23T02:51:40.297Z,5.51
2017-12-23T02:54:07.822Z,5.49
2017-12-23T02:56:35.328Z,5.52
2017-12-23T02:59:02.858Z,5.46
2017-12-23T03:01:30.377Z,5.42
2017-12-23T03:03:57.894Z,5.41
2017-12-23T03:06:25.413Z,5.35
2017-12-23T03:08:52.929Z,5.39
2017-12-23T03:11:20.451Z,5.36
2017-12-23T03:13:47.974Z,5.32
2017-12-23T03:16:15.481Z,5.37
2017-12-23T03:18:43.000Z,5.34
2017-12-23T03:21:10.521Z,5.35
2017-12-23T03:23:38.044Z,5.38
2017-12-23T03:26:05.577Z,5.28
2017-12-23T03:28:33.093Z,5.35
2017-12-23T03:31:00.622Z,5.33
2017-12-23T03:33:28.162Z,5.33
2017-12-23T03:35:55.687Z,5.39
2017-12-23T03:38:23.200Z,5.40
2017-12-23T03:40:50.729Z,5.37
2017-12-23T03:43:18.249Z,5.37
2017-12-23T03:45:45.777Z,5.37
2017-12-23T03:48:13.296Z,5.35
2017-12-23T03:50:40.836Z,5.33
2017-12-23T03:53:08.367Z,5.34
2017-12-23T03:55:35.924Z,5.35
2017-12-23T03:58:03.445Z,5.37
2017-12-23T04:00:30.956Z,5.39
2017-12-23T04:02:58.473Z,5.29
2017-12-23T04:05:25.987Z,5.31
2017-12-23T04:07:53.518Z,5.37
2017-12-23T04:10:21.044Z,5.37
2017-12-23T04:12:50.981Z,5.31
2017-12-23T04:15:18.493Z,5.36
2017-12-23T04:17:45.995Z,5.36
2017-12-23T04:20:13.512Z,5.32
2017-12-23T04:22:41.026Z,5.24
2017-12-23T04:25:08.541Z,5.34
2017-12-23T04:27:36.071Z,5.38
2017-12-23T04:30:03.596Z,5.36
2017-12-23T04:32:31.120Z,5.32
2017-12-23T04:34:58.651Z,5.32
2017-12-23T04:37:26.181Z,5.31
2017-12-23T04:39:53.701Z,5.31
2017-12-23T04:42:21.222Z,5.29
2017-12-23T04:44:48.741Z,5.31
2017-12-23T04:47:16.286Z,5.24
2017-12-23T04:49:43.809Z,5.31
2017-12-23T04:52:11.316Z,5.36
2017-12-23T04:54:38.837Z,5.27
2017-12-23T04:57:06.357Z,5.29
2017-12-23T04:59:33.878Z,5.31
2017-12-23T05:02:01.402Z,5.28
2017-12-23T05:04:28.909Z,5.29
2017-12-23T05:06:56.437Z,5.31
2017-12-23T05:09:23.945Z,5.23
2017-12-23T05:11:51.473Z,5.27
2017-12-23T05:14:18.995Z,5.26
2017-12-23T05:16:46.530Z,5.28
2017-12-23T05:19:14.050Z,5.31
2017-12-23T05:21:41.598Z,5.27
2017-12-23T05:24:09.122Z,5.25
2017-12-23T05:26:36.641Z,5.27
2017-12-23T05:29:04.161Z,5.30
2017-12-23T05:31:31.672Z,5.30
2017-12-23T05:33:59.197Z,5.20
2017-12-23T05:36:26.705Z,5.23
2017-12-23T05:38:54.229Z,5.24
2017-12-23T05:41:21.752Z,5.22
2017-12-23T05:43:49.266Z,5.25
2017-12-23T05:46:16.788Z,5.19
2017-12-23T05:48:44.315Z,5.16
2017-12-23T05:51:11.838Z,5.19
2017-12-23T05:53:39.370Z,5.16
2017-12-23T05:56:06.899Z,5.25
2017-12-23T05:58:34.423Z,5.20
2017-12-23T06:01:01.942Z,5.26
2017-12-23T06:03:29.475Z,5.29
2017-12-23T06:05:57.006Z,5.18
2017-12-23T06:08:24.524Z,5.27
2017-12-23T06:10:52.042Z,5.30
2017-12-23T06:13:19.570Z,5.32
2017-12-23T06:15:47.098Z,5.32
2017-12-23T06:18:14.605Z,5.25
2017-12-23T06:20:42.120Z,5.35
2017-12-23T06:23:09.644Z,5.35
2017-12-23T06:25:37.166Z,5.30
2017-12-23T06:28:04.689Z,5.36
2017-12-23T06:30:32.209Z,5.35
2017-12-23T06:32:59.743Z,5.34
2017-12-23T06:35:27.268Z,5.38
2017-12-23T06:37:54.797Z,5.35
2017-12-23T06:40:22.331Z,5.37
2017-12-23T06:42:49.851Z,5.41
2017-12-23T06:45:17.376Z,5.39
2017-12-23T06:47:44.910Z,5.42
2017-12-23T06:50:12.421Z,5.44
2017-12-23T06:52:39.953Z,5.40
2017-12-23T06:55:07.468Z,5.52
2017-12-23T06:57:34.999Z,5.52
2017-12-23T07:00:02.531Z,5.57
2017-12-23T07:02:30.061Z,5.55
2017-12-23T07:04:57.583Z,5.61
2017-12-23T07:07:25.115Z,5.60
2017-12-23T07:09:52.637Z,5.61
2017-12-23T07:12:20.158Z,5.62
2017-12-23T07:14:47.690Z,5.69
2017-12-23T07:17:15.213Z,5.74
2017-12-23T07:19:42.740Z,5.85
2017-12-23T07:22:10.274Z,5.83
2017-12-23T07:24:37.795Z,5.88
2017-12-23T07:27:05.314Z,5.85
2017-12-23T07:29:32.860Z,5.94
2017-12-23T07:32:00.409Z,5.97
2017-12-23T07:34:27.929Z,6.01
2017-12-23T07:36:55.449Z,6.03
2017-12-23T07:39:23.015Z,6.05
2017-12-23T07:41:50.550Z,6.09
2017-12-23T07:44:18.072Z,6.14
2017-12-23T07:46:45.590Z,6.22
2017-12-23T07:49:13.120Z,6.23
2017-12-23T07:51:40.641Z,6.28
2017-12-23T07:54:08.172Z,6.28
2017-12-23T07:56:35.697Z,6.30
2017-12-23T07:59:03.213Z,6.33
2017-12-23T08:01:30.740Z,6.41
2017-12-23T08:03:58.270Z,6.44
2017-12-23T08:06:25.806Z,6.44
2017-12-23T08:08:53.324Z,6.51
2017-12-23T08:11:20.848Z,6.54
2017-12-23T08:13:48.407Z,6.54
2017-12-23T08:16:15.928Z,6.61
2017-12-23T08:18:43.463Z,6.61
2017-12-23T08:21:10.996Z,6.64
2017-12-23T08:23:38.512Z,6.71
2017-12-23T08:26:06.035Z,6.88
2017-12-23T08:28:33.571Z,7.07
2017-12-23T08:31:01.096Z,7.16
2017-12-23T08:33:28.618Z,7.02
2017-12-23T08:35:56.151Z,7.33
2017-12-23T08:38:23.674Z,7.34
2017-12-23T08:40:51.204Z,7.45
2017-12-23T08:43:18.720Z,7.25
2017-12-23T08:45:46.250Z,7.11
2017-12-23T08:48:13.769Z,7.12
2017-12-23T08:50:41.308Z,7.12
2017-12-23T08:53:08.830Z,7.17
2017-12-23T08:55:36.351Z,7.19
2017-12-23T08:58:03.871Z,7.18
2017-12-23T09:00:31.387Z,7.23
2017-12-23T09:02:58.905Z,7.21
2017-12-23T09:05:26.434Z,7.18
2017-12-23T09:07:53.950Z,7.20
2017-12-23T09:10:21.531Z,7.15
2017-12-23T09:12:49.024Z,7.14
2017-12-23T09:15:16.554Z,7.15
2017-12-23T09:17:44.065Z,7.16
2017-12-23T09:20:11.582Z,7.27
2017-12-23T09:22:39.092Z,7.21
2017-12-23T09:25:06.601Z,7.25
2017-12-23T09:27:34.117Z,7.33
2017-12-23T09:30:01.649Z,7.28
2017-12-23T09:32:29.181Z,7.32
2017-12-23T09:34:56.697Z,7.33
2017-12-23T09:37:24.223Z,7.34
2017-12-23T09:39:51.761Z,7.33
2017-12-23T09:42:19.274Z,7.39
2017-12-23T09:44:46.911Z,7.33
2017-12-23T09:47:14.425Z,7.36
2017-12-23T09:49:41.953Z,7.38
2017-12-23T09:52:09.482Z,7.41
2017-12-23T09:54:37.005Z,7.48
2017-12-23T09:57:04.529Z,7.45
2017-12-23T09:59:32.050Z,7.46
2017-12-23T10:01:59.592Z,7.56
2017-12-23T10:04:27.122Z,7.67
2017-12-23T10:06:54.647Z,7.59
2017-12-23T10:09:22.167Z,7.59
2017-12-23T10:11:49.684Z,7.70
2017-12-23T10:14:17.203Z,7.66
2017-12-23T10:16:44.738Z,7.59
2017-12-23T10:19:12.261Z,7.70
2017-12-23T10:21:39.781Z,7.71
2017-12-23T10:24:07.301Z,7.69
2017-12-23T10:26:35.277Z,7.72
2017-12-23T10:29:02.814Z,7.79
2017-12-23T10:31:30.344Z,7.82
2017-12-23T10:33:57.863Z,7.88
2017-12-23T10:36:25.373Z,7.94
2017-12-23T10:38:52.910Z,7.89
2017-12-23T10:41:20.421Z,8.02
2017-12-23T10:43:47.943Z,8.05
2017-12-23T10:46:15.461Z,8.09
2017-12-23T10:48:42.989Z,8.06
2017-12-23T10:51:10.517Z,8.11
2017-12-23T10:53:38.025Z,8.06
2017-12-23T10:56:05.544Z,8.14
2017-12-23T10:58:33.061Z,8.16
2017-12-23T11:01:00.574Z,8.21
2017-12-23T11:03:28.094Z,8.31
2017-12-23T11:05:55.606Z,8.31
2017-12-23T11:08:23.113Z,8.32
2017-12-23T11:10:50.625Z,8.35
2017-12-23T11:13:18.129Z,8.35
2017-12-23T11:15:45.642Z,8.47
2017-12-23T11:18:13.160Z,8.48
2017-12-23T11:20:40.663Z,8.51
2017-12-23T11:23:08.280Z,8.48
2017-12-23T11:25:35.785Z,8.60
2017-12-23T11:28:03.292Z,8.56
2017-12-23T11:30:30.816Z,8.67
2017-12-23T11:32:58.322Z,8.62
2017-12-23T11:35:25.824Z,8.77
2017-12-23T11:37:53.338Z,8.75
2017-12-23T11:40:20.850Z,8.83
2017-12-23T11:42:48.366Z,8.86
2017-12-23T11:45:15.891Z,8.77
2017-12-23T11:47:43.410Z,8.74
2017-12-23T11:50:11.038Z,8.71
2017-12-23T11:52:38.568Z,8.74
2017-12-23T11:55:06.077Z,8.78
2017-12-23T11:57:33.587Z,8.76
2017-12-23T12:00:01.127Z,8.78
2017-12-23T12:02:28.643Z,8.77
2017-12-23T12:04:56.162Z,8.70
2017-12-23T12:07:23.754Z,8.77
2017-12-23T12:09:51.415Z,8.75
2017-12-23T12:12:18.947Z,8.74
2017-12-23T12:14:46.464Z,8.81
2017-12-23T12:17:13.992Z,8.80
2017-12-23T12:19:41.500Z,8.69
2017-12-23T12:22:09.005Z,8.65
2017-12-23T12:24:36.518Z,8.63
2017-12-23T12:27:04.039Z,8.65
2017-12-23T12:29:31.691Z,8.65
2017-12-23T12:31:59.220Z,8.67
2017-12-23T12:34:26.755Z,8.71
2017-12-23T12:36:54.267Z,8.62
2017-12-23T12:39:21.827Z,8.65
2017-12-23T12:41:49.338Z,8.65
2017-12-23T12:44:16.896Z,8.65
2017-12-23T12:46:44.496Z,8.65
2017-12-23T12:49:12.067Z,8.75
2017-12-23T12:51:39.579Z,8.69
2017-12-23T12:54:07.090Z,8.70
2017-12-23T12:56:34.612Z,8.72
2017-12-23T12:59:02.148Z,8.74
2017-12-23T13:01:29.656Z,8.77
2017-12-23T13:03:57.187Z,8.76
2017-12-23T13:06:24.701Z,8.74
2017-12-23T13:08:52.340Z,8.74
2017-12-23T13:11:19.848Z,8.76
2017-12-23T13:13:47.366Z,8.75
2017-12-23T13:16:14.884Z,8.77
2017-12-23T13:18:42.396Z,8.82
2017-12-23T13:21:09.931Z,8.84
2017-12-23T13:23:37.484Z,8.83
2017-12-23T13:26:05.020Z,8.83
2017-12-23T13:28:32.532Z,8.90
2017-12-23T13:31:00.053Z,8.89
2017-12-23T13:33:27.566Z,8.86
2017-12-23T13:35:55.078Z,8.96
2017-12-23T13:38:22.647Z,8.95
2017-12-23T13:40:50.161Z,8.96
2017-12-23T13:43:17.669Z,9.00
2017-12-23T13:45:45.220Z,8.94
2017-12-23T13:48:12.724Z,9.00
2017-12-23T13:50:40.238Z,9.03
2017-12-23T13:53:07.737Z,8.98
2017-12-23T13:55:35.245Z,9.01
2017-12-23T13:58:02.810Z,9.07
2017-12-23T14:00:30.316Z,9.05
2017-12-23T14:02:57.925Z,9.07
2017-12-23T14:05:25.435Z,9.07
2017-12-23T14:07:52.944Z,9.08
2017-12-23T14:10:20.522Z,9.04
2017-12-23T14:12:48.037Z,9.10
2017-12-23T14:15:15.629Z,9.07
2017-12-23T14:17:43.149Z,9.16
2017-12-23T14:20:10.660Z,9.08
2017-12-23T14:22:38.181Z,9.06
2017-12-23T14:25:05.765Z,9.12
2017-12-23T14:27:33.345Z,9.11
2017-12-23T14:30:00.858Z,9.12
2017-12-23T14:32:28.389Z,9.09
2017-12-23T14:34:56.001Z,9.12
2017-12-23T14:37:23.506Z,9.07
2017-12-23T14:39:51.017Z,9.10
2017-12-23T14:42:18.584Z,9.17
2017-12-23T14:44:46.112Z,9.15
2017-12-23T14:47:13.711Z,9.15
2017-12-23T14:49:41.265Z,9.17
2017-12-23T14:52:08.777Z,9.12
2017-12-23T14:54:36.330Z,9.17
2017-12-23T14:57:03.928Z,9.14
2017-12-23T14:59:32.158Z,9.24
2017-12-23T15:01:59.792Z,9.14
2017-12-23T15:04:27.308Z,9.20
2017-12-23T15:06:54.836Z,9.18
2017-12-23T15:09:22.349Z,9.16
2017-12-23T15:11:49.917Z,9.16
2017-12-23T15:14:17.492Z,9.19
2017-12-23T15:16:45.171Z,9.17
2017-12-23T15:19:12.684Z,9.17
2017-12-23T15:21:40.232Z,9.22
2017-12-23T15:24:07.760Z,9.21
2017-12-23T15:26:35.279Z,9.22
2017-12-23T15:29:02.846Z,9.26
2017-12-23T15:31:30.360Z,9.21
2017-12-23T15:33:57.887Z,9.19
2017-12-23T15:36:25.441Z,9.22
2017-12-23T15:38:52.958Z,9.23
2017-12-23T15:41:20.581Z,9.22
2017-12-23T15:43:48.110Z,9.23
2017-12-23T15:46:15.634Z,9.18
2017-12-23T15:48:43.150Z,9.21
2017-12-23T15:51:10.892Z,9.19
2017-12-23T15:53:38.763Z,9.19
2017-12-23T15:56:06.610Z,9.25
2017-12-23T15:58:34.344Z,9.27
2017-12-23T16:01:02.159Z,9.23
2017-12-23T16:03:30.024Z,9.27
2017-12-23T16:05:57.668Z,9.27
2017-12-23T16:08:25.560Z,9.28
2017-12-23T16:10:53.524Z,9.27
2017-12-23T16:13:21.365Z,9.27
2017-12-23T16:15:49.130Z,9.27
2017-12-23T16:18:16.665Z,9.35
2017-12-23T16:20:44.188Z,9.33
2017-12-23T16:23:11.714Z,9.38
2017-12-23T16:25:39.312Z,9.42
2017-12-23T16:28:06.834Z,9.35
2017-12-23T16:30:34.413Z,9.33
2017-12-23T16:33:01.941Z,9.37
2017-12-23T16:35:29.617Z,9.34
2017-12-23T16:37:57.120Z,9.32
2017-12-23T16:40:24.652Z,9.35
2017-12-23T16:42:52.180Z,9.39
2017-12-23T16:45:20.600Z,9.38
2017-12-23T16:47:48.138Z,9.35
2017-12-23T16:50:16.615Z,9.36
2017-12-23T16:52:44.136Z,9.38
2017-12-23T16:55:12.481Z,9.38
2017-12-23T16:57:41.395Z,9.36
2017-12-23T17:00:08.990Z,9.37
2017-12-23T17:02:36.533Z,9.38
2017-12-23T17:05:04.055Z,9.34
2017-12-23T17:07:31.680Z,9.36
2017-12-23T17:09:59.267Z,9.35
2017-12-23T17:12:27.766Z,9.36
2017-12-23T17:14:55.311Z,9.39
2017-12-23T17:17:22.853Z,9.38
2017-12-23T17:19:50.372Z,9.40
2017-12-23T17:22:17.914Z,9.37
2017-12-23T17:24:45.521Z,9.37
2017-12-23T17:27:13.178Z,9.34
2017-12-23T17:29:52.611Z,9.39
2017-12-23T17:32:20.128Z,9.37
2017-12-23T17:34:47.677Z,9.37
2017-12-23T17:37:15.199Z,9.32
2017-12-23T17:39:43.373Z,9.34
2017-12-23T17:42:11.065Z,9.36
2017-12-23T17:44:38.713Z,9.33
2017-12-23T17:47:06.223Z,9.28
2017-12-23T17:49:33.742Z,9.31
2017-12-23T17:52:01.263Z,9.32
2017-12-23T17:54:28.783Z,9.26
2017-12-23T17:56:56.328Z,9.26
2017-12-23T17:59:24.069Z,9.29
2017-12-23T18:01:51.820Z,9.31
2017-12-23T18:04:19.397Z,9.35
2017-12-23T18:06:46.956Z,9.33
2017-12-23T18:09:14.473Z,9.27
2017-12-23T18:11:42.037Z,9.21
2017-12-23T18:14:09.548Z,9.25
2017-12-23T18:16:37.084Z,9.22
2017-12-23T18:19:04.614Z,9.22
2017-12-23T18:21:32.129Z,9.26
2017-12-23T18:23:59.655Z,9.23
2017-12-23T18:26:27.754Z,9.24
2017-12-23T18:28:55.268Z,9.23
2017-12-23T18:31:22.785Z,9.20
2017-12-23T18:33:50.305Z,9.13
2017-12-23T18:36:17.822Z,9.21
2017-12-23T18:38:45.336Z,9.16
2017-12-23T18:41:12.858Z,9.11
2017-12-23T18:43:40.376Z,9.14
2017-12-23T18:46:07.891Z,9.13
2017-12-23T18:48:35.411Z,9.11
2017-12-23T18:51:02.932Z,9.20
2017-12-23T18:53:30.470Z,9.16
2017-12-23T18:55:57.992Z,9.15
2017-12-23T18:58:25.506Z,9.15
2017-12-23T19:00:53.022Z,9.18
2017-12-23T19:03:21.746Z,9.15
2017-12-23T19:05:49.256Z,9.21
2017-12-23T19:08:16.784Z,9.22
2017-12-23T19:10:44.317Z,9.24
2017-12-23T19:13:11.880Z,9.29
2017-12-23T19:15:39.573Z,9.29
2017-12-23T19:18:07.242Z,9.30
2017-12-23T19:20:34.836Z,9.32
2017-12-23T19:23:02.427Z,9.33
2017-12-23T19:25:29.974Z,9.37
2017-12-23T19:27:57.493Z,9.39
2017-12-23T19:30:25.000Z,9.35
2017-12-23T19:32:52.514Z,9.39
2017-12-23T19:35:20.045Z,9.43
2017-12-23T19:37:47.596Z,9.44
2017-12-23T19:40:15.144Z,9.44
2017-12-23T19:42:42.796Z,9.47
2017-12-23T19:45:10.368Z,9.52
2017-12-23T19:47:37.921Z,9.52
2017-12-23T19:50:05.437Z,9.52
2017-12-23T19:52:32.945Z,9.57
2017-12-23T19:55:00.489Z,9.57
2017-12-23T19:57:28.049Z,9.58
2017-12-23T19:59:55.821Z,9.61
2017-12-23T20:02:23.573Z,9.64
2017-12-23T20:04:51.146Z,9.64
2017-12-23T20:07:18.703Z,9.66
2017-12-23T20:09:46.358Z,9.66
2017-12-23T20:12:13.909Z,9.70
2017-12-23T20:14:41.420Z,9.70
2017-12-23T20:17:08.941Z,9.72
2017-12-23T20:19:36.492Z,9.75
2017-12-23T20:22:04.077Z,9.73
2017-12-23T20:24:31.620Z,9.74
2017-12-23T20:26:59.142Z,9.75
2017-12-23T20:29:26.749Z,9.78
2017-12-23T20:31:54.469Z,9.80
2017-12-23T20:34:22.039Z,9.77
2017-12-23T20:36:49.558Z,9.80
2017-12-23T20:39:17.167Z,9.81
2017-12-23T20:41:44.690Z,9.80
2017-12-23T20:44:12.214Z,9.82
2017-12-23T20:46:39.731Z,9.84
2017-12-23T20:49:07.258Z,9.88
2017-12-23T20:51:34.803Z,9.84
2017-12-23T20:54:02.425Z,9.83
2017-12-23T20:56:29.963Z,9.86
2017-12-23T20:58:57.526Z,9.86
2017-12-23T21:01:25.082Z,9.91
2017-12-23T21:03:52.606Z,9.85
2017-12-23T21:06:20.128Z,9.87
2017-12-23T21:08:47.661Z,9.82
2017-12-23T21:11:15.195Z,9.86
2017-12-23T21:13:42.809Z,9.85
2017-12-23T21:16:10.537Z,9.86
2017-12-23T21:18:38.159Z,9.85
2017-12-23T21:21:05.720Z,9.85
2017-12-23T21:23:33.295Z,9.82
2017-12-23T21:26:00.836Z,9.81
2017-12-23T21:28:28.367Z,9.82
2017-12-23T21:30:55.893Z,9.84
2017-12-23T21:33:23.512Z,9.87
2017-12-23T21:35:51.048Z,9.85
2017-12-23T21:38:19.386Z,9.88
2017-12-23T21:40:46.908Z,9.85
2017-12-23T21:43:14.542Z,9.86
2017-12-23T21:45:42.085Z,9.87
2017-12-23T21:48:09.603Z,9.89
2017-12-23T21:50:37.200Z,9.86
2017-12-23T21:53:04.843Z,9.84
2017-12-23T21:55:32.398Z,9.87
2017-12-23T21:57:59.917Z,9.87
2017-12-23T22:00:27.433Z,9.83
2017-12-23T22:02:55.013Z,9.78
2017-12-23T22:05:22.556Z,9.78
2017-12-23T22:07:50.070Z,9.77
2017-12-23T22:10:17.586Z,9.73
2017-12-23T22:12:45.140Z,9.74
2017-12-23T22:15:12.674Z,9.71
2017-12-23T22:17:40.200Z,9.72
2017-12-23T22:20:07.713Z,9.70
2017-12-23T22:22:35.321Z,9.71
2017-12-23T22:25:02.845Z,9.73
2017-12-23T22:27:30.370Z,9.74
2017-12-23T22:29:57.936Z,9.74
2017-12-23T22:32:25.425Z,9.74
2017-12-23T22:34:52.982Z,9.81
2017-12-23T22:37:20.602Z,9.79
2017-12-23T22:39:48.115Z,9.80
2017-12-23T22:42:27.705Z,9.80
2017-12-23T22:44:55.216Z,9.79
2017-12-23T22:47:22.776Z,9.78
2017-12-23T22:49:50.312Z,9.78
2017-12-23T22:52:17.833Z,9.78
2017-12-23T22:54:45.345Z,9.79
2017-12-23T22:57:12.886Z,9.75
2017-12-23T22:59:40.405Z,9.76
2017-12-23T23:02:08.009Z,9.73
2017-12-23T23:04:35.713Z,9.78
2017-12-23T23:07:03.288Z,9.77
2017-12-23T23:09:30.820Z,9.80
2017-12-23T23:11:58.332Z,9.81
2017-12-23T23:14:25.857Z,9.82
2017-12-23T23:16:53.364Z,9.83
2017-12-23T23:19:20.881Z,9.80
2017-12-23T23:21:48.392Z,9.80
2017-12-23T23:24:15.957Z,9.79
2017-12-23T23:26:43.494Z,9.80
2017-12-23T23:29:11.046Z,9.79
2017-12-23T23:31:38.586Z,9.85
2017-12-23T23:34:06.096Z,9.85
2017-12-23T23:36:33.610Z,9.86
2017-12-23T23:39:01.127Z,9.83
2017-12-23T23:41:28.650Z,9.88
2017-12-23T23:43:56.165Z,9.87
2017-12-23T23:46:23.690Z,9.88
2017-12-23T23:48:51.269Z,9.85
2017-12-23T23:51:18.793Z,9.89
2017-12-23T23:53:46.313Z,9.89
2017-12-23T23:56:13.830Z,9.89
2017-12-23T23:58:41.340Z,9.86
